createdAt,value
2023-05-20T00:00:34.218Z,8.27
2023-05-20T00:01:31.661Z,8.27
2023-05-20T00:02:29.264Z,7.94
2023-05-20T00:03:26.977Z,8.01
2023-05-20T00:04:24.488Z,8.16
2023-05-20T00:05:21.837Z,8.56
2023-05-20T00:06:19.424Z,8.68
2023-05-20T00:07:16.855Z,8.52
2023-05-20T00:08:14.492Z,8.57
2023-05-20T00:09:11.867Z,8.51
2023-05-20T00:10:09.407Z,8.40
2023-05-20T00:11:06.782Z,8.84
2023-05-20T00:12:04.353Z,14.89
2023-05-20T00:13:02.021Z,10.43
2023-05-20T00:13:59.395Z,12.24
2023-05-20T00:14:56.800Z,24.32
2023-05-20T00:15:54.372Z,29.46
2023-05-20T00:16:51.845Z,14.20
2023-05-20T00:17:49.307Z,10.82
2023-05-20T00:18:46.746Z,10.26
2023-05-20T00:19:44.304Z,10.98
2023-05-20T00:20:41.721Z,9.41
2023-05-20T00:21:39.053Z,9.68
2023-05-20T00:22:36.406Z,9.96
2023-05-20T00:23:33.735Z,9.64
2023-05-20T00:24:31.189Z,9.65
2023-05-20T00:25:28.655Z,9.49
2023-05-20T00:26:26.778Z,9.55
2023-05-20T00:27:24.299Z,9.80
2023-05-20T00:28:23.803Z,9.00
2023-05-20T00:29:24.029Z,8.93
2023-05-20T00:30:21.834Z,9.44
2023-05-20T00:31:19.279Z,8.93
2023-05-20T00:32:16.741Z,9.14
2023-05-20T00:33:14.226Z,9.02
2023-05-20T00:34:11.645Z,8.59
2023-05-20T00:35:09.420Z,8.53
2023-05-20T00:36:06.903Z,8.83
2023-05-20T00:37:04.282Z,10.96
2023-05-20T00:38:01.727Z,10.24
2023-05-20T00:38:59.183Z,9.06
2023-05-20T00:39:56.501Z,8.69
2023-05-20T00:40:53.854Z,9.31
2023-05-20T00:41:51.236Z,8.49
2023-05-20T00:42:48.573Z,8.54
2023-05-20T00:43:46.005Z,8.87
2023-05-20T00:44:43.367Z,8.79
2023-05-20T00:45:41.598Z,8.73
2023-05-20T00:46:39.430Z,8.73
2023-05-20T00:47:37.320Z,8.51
2023-05-20T00:48:41.716Z,8.85
2023-05-20T00:49:39.404Z,8.84
2023-05-20T00:50:36.757Z,8.50
2023-05-20T00:51:34.735Z,8.11
2023-05-20T00:52:32.370Z,8.60
2023-05-20T00:53:29.854Z,8.94
2023-05-20T00:54:27.253Z,9.49
2023-05-20T00:55:25.138Z,8.44
2023-05-20T00:56:22.981Z,8.38
2023-05-20T00:57:20.872Z,8.82
2023-05-20T00:58:18.417Z,8.58
2023-05-20T00:59:16.429Z,8.45
2023-05-20T01:00:14.203Z,8.67
2023-05-20T01:01:11.744Z,8.85
2023-05-20T01:02:09.539Z,7.96
2023-05-20T01:03:07.185Z,8.68
2023-05-20T01:04:04.621Z,8.31
2023-05-20T01:05:02.310Z,8.80
2023-05-20T01:06:00.086Z,8.71
2023-05-20T01:06:58.924Z,8.74
2023-05-20T01:07:56.409Z,9.10
2023-05-20T01:08:54.112Z,8.81
2023-05-20T01:09:53.028Z,9.15
2023-05-20T01:10:57.017Z,8.85
2023-05-20T01:12:16.747Z,8.35
2023-05-20T01:13:17.921Z,9.24
2023-05-20T01:14:18.751Z,8.47
2023-05-20T01:15:18.041Z,8.71
2023-05-20T01:16:18.167Z,9.40
2023-05-20T01:17:17.920Z,8.69
2023-05-20T01:18:20.704Z,8.51
2023-05-20T01:19:41.238Z,8.75
2023-05-20T01:20:39.512Z,8.37
2023-05-20T01:21:37.480Z,8.78
2023-05-20T01:22:37.185Z,8.59
2023-05-20T01:23:39.407Z,8.43
2023-05-20T01:24:36.895Z,8.67
2023-05-20T01:25:34.569Z,8.22
2023-05-20T01:26:33.463Z,8.03
2023-05-20T01:27:31.447Z,7.75
2023-05-20T01:28:30.393Z,7.54
2023-05-20T01:29:27.864Z,7.84
2023-05-20T01:30:31.040Z,8.01
2023-05-20T01:31:33.207Z,8.03
2023-05-20T01:32:42.853Z,8.33
2023-05-20T01:33:42.103Z,8.12
2023-05-20T01:34:41.739Z,8.54
2023-05-20T01:35:41.527Z,8.26
2023-05-20T01:36:40.720Z,8.76
2023-05-20T01:37:39.811Z,8.81
2023-05-20T01:38:38.260Z,8.40
2023-05-20T01:39:39.561Z,8.86
2023-05-20T01:40:37.376Z,8.63
2023-05-20T01:41:35.784Z,8.51
2023-05-20T01:42:34.325Z,8.11
2023-05-20T01:43:31.833Z,8.56
2023-05-20T01:44:30.033Z,8.63
2023-05-20T01:45:27.486Z,8.40
2023-05-20T01:46:25.009Z,8.31
2023-05-20T01:47:22.449Z,8.86
2023-05-20T01:48:19.862Z,8.94
2023-05-20T01:49:17.223Z,9.14
2023-05-20T01:50:14.657Z,9.01
2023-05-20T01:51:12.081Z,8.39
2023-05-20T01:52:09.498Z,9.81
2023-05-20T01:53:08.470Z,10.25
2023-05-20T01:54:05.868Z,9.13
2023-05-20T01:55:03.348Z,9.35
2023-05-20T01:56:00.797Z,9.07
2023-05-20T01:56:58.251Z,9.23
2023-05-20T01:57:55.687Z,8.93
2023-05-20T01:58:53.105Z,8.56
2023-05-20T01:59:50.842Z,8.49
2023-05-20T02:00:48.249Z,9.28
2023-05-20T02:01:46.325Z,9.28
2023-05-20T02:02:43.843Z,62.06
2023-05-20T02:03:41.267Z,37.34
2023-05-20T02:04:38.665Z,10.03
2023-05-20T02:05:36.301Z,8.96
2023-05-20T02:06:34.240Z,19.67
2023-05-20T02:07:31.695Z,25.88
2023-05-20T02:08:29.078Z,15.59
2023-05-20T02:09:26.533Z,13.33
2023-05-20T02:10:23.924Z,13.34
2023-05-20T02:11:21.981Z,11.35
2023-05-20T02:12:19.444Z,11.60
2023-05-20T02:13:16.914Z,10.48
2023-05-20T02:14:14.381Z,10.63
2023-05-20T02:15:11.795Z,10.97
2023-05-20T02:16:09.278Z,10.30
2023-05-20T02:17:06.682Z,9.55
2023-05-20T02:18:05.795Z,9.24
2023-05-20T02:19:03.309Z,9.40
2023-05-20T02:20:00.839Z,9.52
2023-05-20T02:21:02.703Z,10.18
2023-05-20T02:22:00.036Z,10.04
2023-05-20T02:22:57.445Z,10.00
2023-05-20T02:23:54.810Z,9.14
2023-05-20T02:24:52.225Z,9.64
2023-05-20T02:25:49.597Z,9.26
2023-05-20T02:26:47.193Z,9.13
2023-05-20T02:27:44.547Z,9.06
2023-05-20T02:28:46.644Z,9.65
2023-05-20T02:29:44.399Z,10.11
2023-05-20T02:30:41.789Z,9.35
2023-05-20T02:31:39.125Z,9.67
2023-05-20T02:32:36.557Z,10.35
2023-05-20T02:33:34.194Z,9.37
2023-05-20T02:34:32.415Z,9.80
2023-05-20T02:35:29.832Z,9.58
2023-05-20T02:36:27.984Z,9.47
2023-05-20T02:37:26.055Z,9.42
2023-05-20T02:38:23.395Z,9.77
2023-05-20T02:39:20.833Z,10.06
2023-05-20T02:40:18.229Z,9.33
2023-05-20T02:41:15.741Z,9.74
2023-05-20T02:42:13.126Z,9.60
2023-05-20T02:43:10.518Z,9.85
2023-05-20T02:44:08.930Z,9.45
2023-05-20T02:45:07.039Z,9.08
2023-05-20T02:46:04.553Z,9.14
2023-05-20T02:47:01.910Z,9.44
2023-05-20T02:47:59.478Z,8.94
2023-05-20T02:48:56.985Z,9.80
2023-05-20T02:49:54.374Z,9.32
2023-05-20T02:50:51.664Z,9.85
2023-05-20T02:51:49.060Z,9.49
2023-05-20T02:52:47.286Z,9.55
2023-05-20T02:53:44.664Z,9.86
2023-05-20T02:54:42.092Z,10.39
2023-05-20T02:55:40.636Z,9.99
2023-05-20T02:56:37.986Z,10.25
2023-05-20T02:57:38.454Z,9.81
2023-05-20T02:58:35.825Z,9.50
2023-05-20T02:59:33.205Z,9.43
2023-05-20T03:00:31.396Z,9.61
2023-05-20T03:01:29.635Z,9.52
2023-05-20T03:02:27.038Z,9.62
2023-05-20T03:03:27.288Z,8.95
2023-05-20T03:04:26.301Z,8.76
2023-05-20T03:05:23.668Z,9.54
2023-05-20T03:06:21.044Z,9.25
2023-05-20T03:07:19.762Z,9.54
2023-05-20T03:08:18.963Z,9.69
2023-05-20T03:09:16.338Z,9.71
2023-05-20T03:10:13.658Z,9.82
2023-05-20T03:11:11.047Z,9.59
2023-05-20T03:12:08.441Z,9.89
2023-05-20T03:13:11.306Z,9.19
2023-05-20T03:14:08.785Z,10.28
2023-05-20T03:15:06.557Z,9.78
2023-05-20T03:16:04.607Z,10.08
2023-05-20T03:17:02.148Z,9.89
2023-05-20T03:17:59.615Z,9.34
2023-05-20T03:18:57.010Z,10.50
2023-05-20T03:19:54.663Z,10.44
2023-05-20T03:20:52.047Z,9.91
2023-05-20T03:21:50.724Z,9.18
2023-05-20T03:22:48.053Z,9.76
2023-05-20T03:23:45.623Z,9.24
2023-05-20T03:24:44.311Z,9.32
2023-05-20T03:25:41.729Z,9.57
2023-05-20T03:26:43.151Z,9.09
2023-05-20T03:27:41.837Z,9.01
2023-05-20T03:28:39.252Z,9.44
2023-05-20T03:29:36.613Z,9.96
2023-05-20T03:30:34.049Z,9.75
2023-05-20T03:31:31.434Z,9.51
2023-05-20T03:32:28.888Z,9.86
2023-05-20T03:33:26.441Z,9.28
2023-05-20T03:34:23.870Z,9.31
2023-05-20T03:35:21.338Z,9.58
2023-05-20T03:36:18.701Z,9.63
2023-05-20T03:37:16.048Z,9.45
2023-05-20T03:38:13.456Z,10.05
2023-05-20T03:39:10.853Z,11.23
2023-05-20T03:40:10.502Z,20.37
2023-05-20T03:41:08.728Z,11.69
2023-05-20T03:42:06.074Z,10.22
2023-05-20T03:43:03.401Z,9.67
2023-05-20T03:44:00.965Z,9.25
2023-05-20T03:45:00.194Z,10.10
2023-05-20T03:45:57.588Z,10.24
2023-05-20T03:46:55.084Z,10.61
2023-05-20T03:47:52.548Z,10.50
2023-05-20T03:48:49.982Z,9.06
2023-05-20T03:49:47.357Z,9.32
2023-05-20T03:50:44.700Z,9.81
2023-05-20T03:51:42.078Z,9.79
2023-05-20T03:52:41.025Z,8.73
2023-05-20T03:53:38.458Z,9.30
2023-05-20T03:54:36.843Z,9.28
2023-05-20T03:55:34.924Z,9.22
2023-05-20T03:56:32.532Z,8.80
2023-05-20T03:57:30.440Z,8.88
2023-05-20T03:58:29.742Z,8.90
2023-05-20T03:59:27.562Z,9.38
2023-05-20T04:00:24.893Z,8.91
2023-05-20T04:01:25.746Z,9.41
2023-05-20T04:02:23.281Z,9.26
2023-05-20T04:03:21.095Z,8.87
2023-05-20T04:04:18.500Z,8.98
2023-05-20T04:05:15.894Z,8.66
2023-05-20T04:06:14.314Z,9.24
2023-05-20T04:07:11.697Z,8.66
2023-05-20T04:08:10.006Z,9.54
2023-05-20T04:09:07.468Z,9.13
2023-05-20T04:10:05.558Z,9.52
2023-05-20T04:11:03.622Z,8.70
2023-05-20T04:12:01.278Z,9.01
2023-05-20T04:12:58.677Z,9.27
2023-05-20T04:13:55.980Z,9.29
2023-05-20T04:14:55.626Z,8.70
2023-05-20T04:15:53.239Z,8.81
2023-05-20T04:16:51.718Z,8.57
2023-05-20T04:17:50.650Z,8.31
2023-05-20T04:18:48.413Z,8.44
2023-05-20T04:19:46.218Z,9.22
2023-05-20T04:20:43.593Z,9.49
2023-05-20T04:21:43.374Z,8.85
2023-05-20T04:22:40.839Z,8.87
2023-05-20T04:23:38.175Z,9.54
2023-05-20T04:24:35.562Z,9.07
2023-05-20T04:25:33.430Z,9.10
2023-05-20T04:26:31.224Z,9.28
2023-05-20T04:27:28.897Z,9.15
2023-05-20T04:28:28.210Z,8.63
2023-05-20T04:29:25.640Z,9.25
2023-05-20T04:30:23.120Z,8.75
2023-05-20T04:31:21.285Z,8.77
2023-05-20T04:32:19.721Z,8.97
2023-05-20T04:33:18.606Z,8.80
2023-05-20T04:34:19.555Z,8.65
2023-05-20T04:35:17.073Z,8.24
2023-05-20T04:36:16.479Z,8.54
2023-05-20T04:37:14.378Z,8.51
2023-05-20T04:38:11.700Z,8.61
2023-05-20T04:39:09.171Z,8.99
2023-05-20T04:40:06.845Z,8.52
2023-05-20T04:41:04.324Z,8.54
2023-05-20T04:42:02.997Z,8.05
2023-05-20T04:43:00.873Z,8.39
2023-05-20T04:43:59.901Z,8.49
2023-05-20T04:44:58.196Z,8.07
2023-05-20T04:45:59.853Z,8.39
2023-05-20T04:47:00.485Z,8.62
2023-05-20T04:47:58.255Z,8.46
2023-05-20T04:48:55.606Z,9.07
2023-05-20T04:49:53.075Z,9.14
2023-05-20T04:50:50.570Z,8.80
2023-05-20T04:51:50.094Z,9.17
2023-05-20T04:52:47.657Z,8.44
2023-05-20T04:53:46.222Z,8.37
2023-05-20T04:54:43.703Z,8.44
2023-05-20T04:55:41.633Z,8.68
2023-05-20T04:56:39.013Z,8.69
2023-05-20T04:57:38.780Z,8.04
2023-05-20T04:58:36.250Z,8.09
2023-05-20T04:59:33.656Z,8.11
2023-05-20T05:00:31.020Z,8.17
2023-05-20T05:01:28.351Z,8.10
2023-05-20T05:02:25.870Z,7.79
2023-05-20T05:03:23.303Z,7.85
2023-05-20T05:04:20.788Z,8.52
2023-05-20T05:05:18.185Z,8.09
2023-05-20T05:06:15.719Z,7.99
2023-05-20T05:07:13.068Z,7.88
2023-05-20T05:08:13.673Z,8.11
2023-05-20T05:09:11.085Z,8.05
2023-05-20T05:10:08.704Z,8.24
2023-05-20T05:11:07.081Z,7.94
2023-05-20T05:12:04.546Z,8.15
2023-05-20T05:13:02.017Z,7.61
2023-05-20T05:13:59.541Z,7.98
2023-05-20T05:14:58.809Z,7.84
2023-05-20T05:16:03.172Z,8.22
2023-05-20T05:17:00.593Z,8.26
2023-05-20T05:17:58.015Z,8.23
2023-05-20T05:18:55.452Z,8.32
2023-05-20T05:19:52.921Z,8.07
2023-05-20T05:20:50.254Z,8.14
2023-05-20T05:21:48.473Z,8.17
2023-05-20T05:22:46.166Z,7.87
2023-05-20T05:23:43.803Z,7.86
2023-05-20T05:24:41.372Z,7.90
2023-05-20T05:25:38.725Z,7.98
2023-05-20T05:26:36.048Z,7.96
2023-05-20T05:27:33.500Z,8.07
2023-05-20T05:28:31.021Z,8.99
2023-05-20T05:29:28.416Z,9.15
2023-05-20T05:30:26.064Z,9.41
2023-05-20T05:31:23.499Z,10.48
2023-05-20T05:32:20.935Z,10.33
2023-05-20T05:33:18.422Z,9.78
2023-05-20T05:34:15.851Z,8.87
2023-05-20T05:35:13.202Z,8.85
2023-05-20T05:36:10.629Z,8.77
2023-05-20T05:37:08.039Z,8.79
2023-05-20T05:38:05.436Z,8.93
2023-05-20T05:39:03.354Z,9.11
2023-05-20T05:40:00.804Z,9.51
2023-05-20T05:40:58.177Z,10.56
2023-05-20T05:41:56.270Z,9.98
2023-05-20T05:42:53.668Z,9.36
2023-05-20T05:43:52.382Z,9.42
2023-05-20T05:44:49.782Z,9.30
2023-05-20T05:45:47.157Z,9.05
2023-05-20T05:46:44.533Z,9.81
2023-05-20T05:47:42.680Z,9.84
2023-05-20T05:48:40.072Z,10.08
2023-05-20T05:49:37.547Z,10.26
2023-05-20T05:50:34.917Z,9.92
2023-05-20T05:51:32.300Z,10.47
2023-05-20T05:52:29.679Z,10.35
2023-05-20T05:53:27.072Z,10.55
2023-05-20T05:54:24.511Z,11.16
2023-05-20T05:55:23.857Z,10.23
2023-05-20T05:56:21.866Z,10.43
2023-05-20T05:57:19.171Z,9.89
2023-05-20T05:58:17.187Z,9.65
2023-05-20T05:59:16.036Z,9.31
2023-05-20T06:00:13.650Z,9.58
2023-05-20T06:01:11.722Z,8.74
2023-05-20T06:02:10.860Z,9.10
2023-05-20T06:03:08.569Z,8.94
2023-05-20T06:04:06.154Z,8.70
2023-05-20T06:05:04.580Z,8.44
2023-05-20T06:06:02.036Z,11.61
2023-05-20T06:06:59.465Z,11.82
2023-05-20T06:07:56.852Z,12.14
2023-05-20T06:08:54.327Z,11.69
2023-05-20T06:09:51.705Z,11.80
2023-05-20T06:10:50.090Z,12.36
2023-05-20T06:11:47.585Z,12.34
2023-05-20T06:12:44.939Z,11.48
2023-05-20T06:13:42.375Z,11.96
2023-05-20T06:14:39.744Z,11.44
2023-05-20T06:15:37.202Z,11.97
2023-05-20T06:16:34.658Z,10.98
2023-05-20T06:17:32.059Z,11.07
2023-05-20T06:18:29.534Z,10.61
2023-05-20T06:19:26.906Z,11.26
2023-05-20T06:20:24.345Z,12.12
2023-05-20T06:21:21.711Z,12.55
2023-05-20T06:22:19.093Z,11.83
2023-05-20T06:23:16.608Z,11.85
2023-05-20T06:24:14.051Z,11.54
2023-05-20T06:25:11.422Z,12.43
2023-05-20T06:26:08.825Z,12.24
2023-05-20T06:27:06.352Z,12.20
2023-05-20T06:28:03.857Z,13.05
2023-05-20T06:29:01.190Z,12.96
2023-05-20T06:29:58.584Z,12.57
2023-05-20T06:30:56.319Z,11.56
2023-05-20T06:31:53.757Z,11.69
2023-05-20T06:32:51.170Z,12.24
2023-05-20T06:33:48.581Z,12.39
2023-05-20T06:34:45.976Z,13.86
2023-05-20T06:35:43.765Z,13.79
2023-05-20T06:36:41.204Z,14.16
2023-05-20T06:37:38.694Z,13.79
2023-05-20T06:38:36.123Z,12.58
2023-05-20T06:39:34.012Z,12.66
2023-05-20T06:40:31.420Z,13.35
2023-05-20T06:41:28.895Z,13.00
2023-05-20T06:42:26.700Z,13.47
2023-05-20T06:43:24.087Z,14.21
2023-05-20T06:44:21.523Z,13.65
2023-05-20T06:45:19.442Z,13.94
2023-05-20T06:46:16.813Z,13.55
2023-05-20T06:47:16.059Z,12.64
2023-05-20T06:48:13.451Z,13.07
2023-05-20T06:49:10.873Z,12.51
2023-05-20T06:50:08.600Z,12.65
2023-05-20T06:51:09.423Z,13.12
2023-05-20T06:52:09.331Z,12.19
2023-05-20T06:53:06.907Z,12.08
2023-05-20T06:54:04.273Z,11.31
2023-05-20T06:55:01.732Z,11.17
2023-05-20T06:55:59.117Z,11.62
2023-05-20T06:56:56.615Z,11.35
2023-05-20T06:57:53.972Z,10.75
2023-05-20T06:58:51.327Z,11.12
2023-05-20T06:59:48.699Z,10.84
2023-05-20T07:00:46.907Z,10.83
2023-05-20T07:01:44.450Z,10.68
2023-05-20T07:02:42.259Z,11.21
2023-05-20T07:03:39.679Z,10.98
2023-05-20T07:04:37.403Z,11.12
2023-05-20T07:05:34.955Z,11.36
2023-05-20T07:06:32.592Z,11.19
2023-05-20T07:07:29.969Z,11.86
2023-05-20T07:08:27.307Z,11.63
2023-05-20T07:09:24.743Z,12.05
2023-05-20T07:10:22.150Z,12.11
2023-05-20T07:11:19.480Z,11.13
2023-05-20T07:12:16.811Z,10.76
2023-05-20T07:13:14.312Z,11.32
2023-05-20T07:14:11.971Z,11.65
2023-05-20T07:15:09.591Z,11.45
2023-05-20T07:16:08.270Z,11.91
2023-05-20T07:17:06.033Z,12.15
2023-05-20T07:18:03.696Z,10.94
2023-05-20T07:19:01.282Z,10.37
2023-05-20T07:19:58.666Z,9.01
2023-05-20T07:20:57.181Z,9.23
2023-05-20T07:21:55.395Z,10.38
2023-05-20T07:22:52.711Z,10.11
2023-05-20T07:23:50.099Z,9.41
2023-05-20T07:24:47.525Z,9.27
2023-05-20T07:25:44.890Z,9.37
2023-05-20T07:26:42.339Z,8.89
2023-05-20T07:27:39.705Z,9.20
2023-05-20T07:28:38.641Z,9.10
2023-05-20T07:29:37.153Z,8.31
2023-05-20T07:30:34.493Z,8.70
2023-05-20T07:31:31.927Z,9.05
2023-05-20T07:32:29.381Z,8.77
2023-05-20T07:33:26.828Z,8.20
2023-05-20T07:34:24.140Z,8.50
2023-05-20T07:35:21.475Z,9.10
2023-05-20T07:36:19.320Z,9.28
2023-05-20T07:37:16.700Z,8.94
2023-05-20T07:38:14.056Z,8.69
2023-05-20T07:39:14.968Z,8.03
2023-05-20T07:40:12.717Z,8.80
2023-05-20T07:41:10.134Z,8.21
2023-05-20T07:42:08.024Z,8.63
2023-05-20T07:43:06.148Z,8.24
2023-05-20T07:44:05.000Z,8.44
2023-05-20T07:45:02.545Z,8.03
2023-05-20T07:45:59.979Z,8.64
2023-05-20T07:46:57.622Z,7.99
2023-05-20T07:47:55.051Z,7.83
2023-05-20T07:48:52.488Z,8.46
2023-05-20T07:49:49.908Z,8.88
2023-05-20T07:50:47.260Z,8.96
2023-05-20T07:51:44.586Z,8.79
2023-05-20T07:52:55.002Z,8.37
2023-05-20T07:53:53.652Z,10.04
2023-05-20T07:54:51.031Z,11.57
2023-05-20T07:55:48.426Z,9.21
2023-05-20T07:56:46.287Z,9.18
2023-05-20T07:57:44.792Z,9.22
2023-05-20T07:58:42.679Z,9.03
2023-05-20T07:59:40.068Z,8.84
2023-05-20T08:00:37.505Z,9.31
2023-05-20T08:01:35.017Z,9.38
2023-05-20T08:02:32.462Z,9.97
2023-05-20T08:03:30.159Z,10.23
2023-05-20T08:04:27.895Z,9.42
2023-05-20T08:05:25.598Z,9.16
2023-05-20T08:06:25.801Z,9.28
2023-05-20T08:07:24.168Z,10.06
2023-05-20T08:08:21.646Z,12.47
2023-05-20T08:09:19.587Z,10.83
2023-05-20T08:10:17.035Z,9.02
2023-05-20T08:11:14.507Z,13.08
2023-05-20T08:12:11.888Z,12.36
2023-05-20T08:13:09.296Z,9.53
2023-05-20T08:14:09.070Z,12.54
2023-05-20T08:15:06.865Z,9.63
2023-05-20T08:16:05.880Z,10.41
2023-05-20T08:17:03.402Z,9.34
2023-05-20T08:18:00.894Z,12.80
2023-05-20T08:18:58.359Z,18.20
2023-05-20T08:19:55.820Z,10.84
2023-05-20T08:20:53.218Z,8.66
2023-05-20T08:21:50.646Z,10.23
2023-05-20T08:22:48.113Z,10.53
2023-05-20T08:23:45.523Z,9.52
2023-05-20T08:24:42.919Z,10.54
2023-05-20T08:25:40.326Z,9.07
2023-05-20T08:26:37.731Z,9.74
2023-05-20T08:27:35.612Z,10.15
2023-05-20T08:28:33.149Z,8.66
2023-05-20T08:29:31.130Z,7.95
2023-05-20T08:30:28.494Z,8.86
2023-05-20T08:31:25.923Z,8.88
2023-05-20T08:32:23.291Z,8.95
2023-05-20T08:33:22.006Z,8.53
2023-05-20T08:34:19.440Z,8.80
2023-05-20T08:35:16.889Z,8.76
2023-05-20T08:36:14.314Z,8.46
2023-05-20T08:37:11.724Z,9.30
2023-05-20T08:38:09.040Z,8.96
2023-05-20T08:39:06.371Z,9.40
2023-05-20T08:40:05.262Z,9.56
2023-05-20T08:41:03.957Z,8.37
2023-05-20T08:42:03.300Z,7.76
2023-05-20T08:43:02.026Z,8.54
2023-05-20T08:44:01.162Z,8.50
2023-05-20T08:45:01.220Z,8.38
2023-05-20T08:45:58.656Z,8.16
2023-05-20T08:46:57.023Z,8.48
2023-05-20T08:47:54.675Z,8.77
2023-05-20T08:48:52.243Z,8.38
2023-05-20T08:49:49.836Z,8.16
2023-05-20T08:50:52.683Z,8.48
2023-05-20T08:51:50.094Z,8.81
2023-05-20T08:52:51.801Z,8.26
2023-05-20T08:53:50.191Z,8.31
2023-05-20T08:54:49.306Z,8.32
2023-05-20T08:55:49.069Z,8.14
2023-05-20T08:56:46.780Z,8.46
2023-05-20T08:57:45.984Z,8.81
2023-05-20T08:58:43.472Z,8.38
2023-05-20T08:59:45.362Z,8.36
2023-05-20T09:00:42.695Z,8.28
2023-05-20T09:01:43.907Z,8.46
2023-05-20T09:02:41.445Z,8.84
2023-05-20T09:03:38.884Z,8.34
2023-05-20T09:04:36.457Z,8.53
2023-05-20T09:05:34.681Z,9.14
2023-05-20T09:06:42.567Z,8.48
2023-05-20T09:07:40.186Z,8.31
2023-05-20T09:08:37.590Z,7.75
2023-05-20T09:09:35.640Z,8.50
2023-05-20T09:10:33.623Z,8.40
2023-05-20T09:11:31.110Z,8.35
2023-05-20T09:12:28.603Z,8.82
2023-05-20T09:13:27.433Z,8.05
2023-05-20T09:14:27.182Z,8.17
2023-05-20T09:15:24.744Z,8.59
2023-05-20T09:16:22.137Z,8.42
2023-05-20T09:17:21.726Z,9.06
2023-05-20T09:18:19.405Z,8.30
2023-05-20T09:19:16.923Z,8.16
2023-05-20T09:20:14.841Z,8.37
2023-05-20T09:21:13.450Z,8.40
2023-05-20T09:22:10.917Z,8.21
2023-05-20T09:23:09.591Z,8.24
2023-05-20T09:24:07.238Z,8.65
2023-05-20T09:25:05.261Z,8.20
2023-05-20T09:26:02.759Z,8.36
2023-05-20T09:27:00.138Z,8.31
2023-05-20T09:27:57.528Z,8.51
2023-05-20T09:28:58.069Z,8.86
2023-05-20T09:29:55.458Z,8.77
2023-05-20T09:30:58.002Z,8.20
2023-05-20T09:31:56.559Z,8.35
2023-05-20T09:33:00.871Z,8.52
2023-05-20T09:33:58.353Z,8.64
2023-05-20T09:34:55.842Z,7.80
2023-05-20T09:35:53.498Z,7.83
2023-05-20T09:36:51.298Z,8.76
2023-05-20T09:37:51.825Z,8.20
2023-05-20T09:38:53.086Z,8.07
2023-05-20T09:39:50.562Z,8.45
2023-05-20T09:40:49.603Z,8.39
2023-05-20T09:41:55.686Z,8.72
2023-05-20T09:42:54.679Z,8.28
2023-05-20T09:43:52.954Z,7.83
2023-05-20T09:44:50.779Z,7.98
2023-05-20T09:45:48.540Z,8.36
2023-05-20T09:46:46.430Z,8.45
2023-05-20T09:47:45.193Z,8.23
2023-05-20T09:48:43.323Z,8.07
2023-05-20T09:49:42.168Z,8.57
2023-05-20T09:50:41.459Z,8.44
2023-05-20T09:51:41.971Z,8.00
2023-05-20T09:52:39.838Z,8.63
2023-05-20T09:53:37.158Z,8.11
2023-05-20T09:54:36.508Z,8.09
2023-05-20T09:55:34.336Z,7.78
2023-05-20T09:56:33.234Z,7.37
2023-05-20T09:57:31.082Z,7.41
2023-05-20T09:58:29.697Z,7.56
2023-05-20T09:59:27.617Z,7.34
2023-05-20T10:00:24.985Z,7.54
2023-05-20T10:01:22.512Z,7.29
2023-05-20T10:02:20.751Z,7.39
2023-05-20T10:03:21.829Z,7.59
2023-05-20T10:04:20.927Z,7.10
2023-05-20T10:05:24.227Z,7.20
2023-05-20T10:06:40.270Z,6.90
2023-05-20T10:07:52.293Z,6.70
2023-05-20T10:09:10.452Z,6.59
2023-05-20T10:10:08.865Z,6.74
2023-05-20T10:11:15.982Z,6.87
2023-05-20T10:12:31.908Z,6.37
2023-05-20T10:13:52.445Z,6.58
2023-05-20T10:14:58.705Z,6.27
2023-05-20T10:15:58.906Z,6.04
2023-05-20T10:17:10.239Z,5.91
2023-05-20T10:18:07.624Z,6.20
2023-05-20T10:19:05.162Z,6.48
2023-05-20T10:20:04.553Z,6.81
2023-05-20T10:21:03.966Z,6.20
2023-05-20T10:22:02.900Z,6.52
2023-05-20T10:23:00.326Z,6.83
2023-05-20T10:24:06.692Z,6.63
2023-05-20T10:25:08.104Z,6.73
2023-05-20T10:26:06.885Z,6.32
2023-05-20T10:27:05.577Z,6.76
2023-05-20T10:28:08.917Z,6.33
2023-05-20T10:29:16.653Z,6.34
2023-05-20T10:30:21.841Z,6.27
2023-05-20T10:31:22.841Z,6.45
2023-05-20T10:32:27.651Z,6.96
2023-05-20T10:33:28.763Z,6.48
2023-05-20T10:34:26.168Z,6.85
2023-05-20T10:35:27.780Z,6.79
2023-05-20T10:36:29.195Z,6.84
2023-05-20T10:37:30.999Z,6.53
2023-05-20T10:38:28.365Z,7.21
2023-05-20T10:39:27.669Z,6.93
2023-05-20T10:40:25.618Z,6.97
2023-05-20T10:41:27.152Z,7.01
2023-05-20T10:42:30.465Z,6.70
2023-05-20T10:43:28.993Z,6.82
2023-05-20T10:44:26.338Z,6.97
2023-05-20T10:45:29.961Z,6.65
2023-05-20T10:46:38.052Z,6.88
2023-05-20T10:48:03.344Z,6.86
2023-05-20T10:49:05.141Z,7.09
2023-05-20T10:50:05.003Z,7.01
2023-05-20T10:51:05.984Z,7.30
2023-05-20T10:52:03.596Z,6.45
2023-05-20T10:53:21.754Z,7.08
2023-05-20T10:54:27.223Z,6.23
2023-05-20T10:55:24.607Z,6.31
2023-05-20T10:56:23.158Z,6.59
2023-05-20T10:57:21.546Z,7.03
2023-05-20T10:58:19.818Z,6.59
2023-05-20T10:59:17.472Z,6.87
2023-05-20T11:00:16.297Z,6.67
2023-05-20T11:01:16.594Z,6.69
2023-05-20T11:02:16.519Z,6.65
2023-05-20T11:03:14.928Z,6.70
2023-05-20T11:04:14.054Z,6.51
2023-05-20T11:05:12.343Z,6.91
2023-05-20T11:06:13.146Z,6.57
2023-05-20T11:07:11.138Z,6.26
2023-05-20T11:08:24.127Z,6.41
2023-05-20T11:09:25.632Z,6.35
2023-05-20T11:10:24.064Z,6.58
2023-05-20T11:11:22.505Z,6.73
2023-05-20T11:12:19.871Z,6.78
2023-05-20T11:13:18.076Z,7.09
2023-05-20T11:14:16.438Z,6.70
2023-05-20T11:15:13.816Z,6.70
2023-05-20T11:16:11.604Z,7.05
2023-05-20T11:17:09.262Z,6.59
2023-05-20T11:18:06.818Z,6.82
2023-05-20T11:19:04.660Z,7.57
2023-05-20T11:20:02.385Z,7.22
2023-05-20T11:21:00.405Z,7.41
2023-05-20T11:21:57.830Z,7.10
2023-05-20T11:22:56.408Z,7.23
2023-05-20T11:23:53.803Z,6.89
2023-05-20T11:24:51.246Z,6.84
2023-05-20T11:25:50.018Z,6.87
2023-05-20T11:26:47.509Z,7.01
2023-05-20T11:27:45.591Z,7.23
2023-05-20T11:28:42.955Z,7.23
2023-05-20T11:29:40.717Z,7.03
2023-05-20T11:30:38.195Z,7.29
2023-05-20T11:31:37.837Z,7.05
2023-05-20T11:32:35.255Z,7.25
2023-05-20T11:33:32.626Z,7.75
2023-05-20T11:34:37.276Z,7.23
2023-05-20T11:35:34.761Z,7.34
2023-05-20T11:36:32.487Z,7.51
2023-05-20T11:37:29.837Z,7.13
2023-05-20T11:38:27.958Z,7.19
2023-05-20T11:39:27.550Z,7.24
2023-05-20T11:40:30.584Z,7.13
2023-05-20T11:41:30.664Z,7.03
2023-05-20T11:42:28.269Z,7.55
2023-05-20T11:43:25.866Z,7.04
2023-05-20T11:44:23.187Z,7.22
2023-05-20T11:45:20.561Z,7.32
2023-05-20T11:46:21.082Z,7.04
2023-05-20T11:47:24.867Z,7.40
2023-05-20T11:48:22.323Z,7.53
2023-05-20T11:49:19.666Z,7.45
2023-05-20T11:50:18.789Z,7.46
2023-05-20T11:51:16.190Z,7.41
2023-05-20T11:52:13.591Z,7.18
2023-05-20T11:53:14.645Z,6.66
2023-05-20T11:54:12.187Z,7.37
2023-05-20T11:55:14.639Z,7.35
2023-05-20T11:56:12.093Z,7.27
2023-05-20T11:57:11.194Z,7.55
2023-05-20T11:58:08.601Z,7.14
2023-05-20T11:59:08.926Z,7.18
2023-05-20T12:00:10.811Z,7.69
2023-05-20T12:01:20.850Z,7.79
2023-05-20T12:02:19.858Z,7.08
2023-05-20T12:03:17.456Z,7.54
2023-05-20T12:04:15.371Z,7.77
2023-05-20T12:05:13.734Z,8.55
2023-05-20T12:06:12.081Z,7.37
2023-05-20T12:07:10.448Z,7.35
2023-05-20T12:08:08.155Z,7.69
2023-05-20T12:09:08.194Z,7.33
2023-05-20T12:10:05.952Z,7.64
2023-05-20T12:11:03.371Z,7.11
2023-05-20T12:12:01.436Z,7.44
2023-05-20T12:12:59.420Z,7.50
2023-05-20T12:13:56.743Z,7.06
2023-05-20T12:14:54.226Z,6.99
2023-05-20T12:15:51.631Z,6.72
2023-05-20T12:16:49.400Z,7.31
2023-05-20T12:17:50.905Z,7.12
2023-05-20T12:18:48.299Z,7.18
2023-05-20T12:19:45.937Z,6.91
2023-05-20T12:20:43.410Z,6.72
2023-05-20T12:21:40.777Z,6.63
2023-05-20T12:22:38.122Z,7.15
2023-05-20T12:23:35.655Z,6.61
2023-05-20T12:24:33.061Z,7.20
2023-05-20T12:25:30.661Z,7.09
2023-05-20T12:26:29.042Z,7.22
2023-05-20T12:27:26.385Z,6.74
2023-05-20T12:28:23.738Z,6.91
2023-05-20T12:29:21.095Z,6.93
2023-05-20T12:30:19.830Z,7.14
2023-05-20T12:31:17.296Z,7.29
2023-05-20T12:32:14.948Z,7.01
2023-05-20T12:33:12.700Z,6.66
2023-05-20T12:34:10.125Z,6.92
2023-05-20T12:35:07.673Z,6.52
2023-05-20T12:36:05.352Z,6.79
2023-05-20T12:37:02.726Z,6.64
2023-05-20T12:38:01.170Z,6.59
2023-05-20T12:38:58.609Z,6.53
2023-05-20T12:39:55.965Z,6.39
2023-05-20T12:40:53.363Z,6.18
2023-05-20T12:41:50.826Z,6.35
2023-05-20T12:42:48.371Z,6.31
2023-05-20T12:43:45.885Z,6.26
2023-05-20T12:44:43.264Z,6.01
2023-05-20T12:45:40.721Z,6.05
2023-05-20T12:46:38.503Z,5.94
2023-05-20T12:47:36.515Z,5.96
2023-05-20T12:48:33.890Z,5.87
2023-05-20T12:49:31.476Z,5.36
2023-05-20T12:50:28.946Z,5.15
2023-05-20T12:51:26.301Z,5.76
2023-05-20T12:52:23.998Z,6.22
2023-05-20T12:53:21.359Z,5.73
2023-05-20T12:54:19.825Z,6.17